Terminal Aerodrome Forecast
Issued by NWS

Home | Current Version | Previous Version | Text Only | Print | Product List | Glossary On
Versions: 1 2 3 4 5 6 7 8 9 10 11 12 13 14 15 16 17 18
000
FTUS46 KSGX 252340
TAFCRQ
TAF
KCRQ 252340Z 2600/2624 29011KT P6SM SCT025 SCT040
     FM260100 VRB04KT P6SM SCT025
     FM260800 VRB04KT P6SM OVC020
     FM261900 28010KT P6SM SCT030=

USA.gov is the U.S. government's official web portal to all federal, state and local government web resources and services.